首页
METAR-TAF:

METAR-TAF

机场 :

Tri-Township Airport

大草原, 伊利诺伊州, 美国

纬度: 42-02-45N, 经度: 090-06-28W, 海拔: 188米

当前天气观测

该预报发布于21分钟前的14:55 UTC
风速3节,风向
温度 20°C
湿度 100%
气压 1011 hPa
能見度: 16.1公里
散云层高于800英尺
多云层高于5500英尺
阴天层高于10000英尺

METAR: KSFY 221455Z AUTO 01003KT 10SM RA SCT008 BKN055 OVC100 20/20 A2986 RMK AO2 P0006

时间: 10:16 (15:16 UTC)


TAF: 丢失

超过4000个机场的气象观测和天气预报(METAR&TAF报告)。

可查询的气象台以黄色和红色小点在地图上表示。

将鼠标移到小点上方,可查看气象台名称。

然后点击查看天气观测和预报。

如需切换地图:点击带黑十字的绿色按钮放大地图;点击带横线的绿色按钮缩小地图;或者点击绿色箭头查看邻近地区的地图。


METAR-TAF: